Browns Summit, NC (27214)

9:48 AM EST on February 10, 2016 (GMT -0500)
Reedy Fork Elementary School | | Change Station
CLOSE
Current Station
Personal Weather Station
Location: Greensboro, NC
Elevation: 741 ft
Nearby Weather Stations

Elev 741 ft 36.19 °N, 79.70 °W | Updated 39 seconds ago

Clear
Clear
31.3 °F
Feels Like 25 °F
N
6.0
Wind Variable Wind from NW
Gusts 19.0 mph

Today
High -- | Low -- °F
--% Chance of Precip.
Yesterday
High -- | Low -- °F
Precip. -- in
Pressure 29.93 in
Visibility 10.0 miles
Clouds Clear
Windchill 25 °F
Dew Point 15 °F
Humidity 50%
Rainfall 0.00 in
Snow Depth Not available.
7:12 AM 5:54 PM
Waxing Crescent, 5% visible
METAR KBUY 101354Z AUTO 27011G15KT 10SM CLR M02/M10 A2991 RMK AO2 SLP134 T10221100
Pressure 29.93 in
Visibility 10.0 miles
Clouds Clear
Windchill 25 °F
Dew Point 15 °F
Humidity 50%
Rainfall 0.00 in
Snow Depth Not available.
7:12 AM 5:54 PM
Waxing Crescent, 5% visible
METAR KBUY 101354Z AUTO 27011G15KT 10SM CLR M02/M10 A2991 RMK AO2 SLP134 T10221100

10-Day Weather Forecast

Almanac

Astronomy

Feb. 10, 2016 Rise Set
Actual Time
Civil Twilight
Nautical Twilight
Astronomical Twilight
Moon
Length of Visible Light
Length of Day
Tomorrow will be .
, % of the Moon is Illuminated

Today's Extremes

State Highs State Lows

Community

WunderPhotos

Upload Photos

1,891,854 photos uploaded!

WunderBlog® & News

Nearby

Air Quality

  Air Quality AQ Index Pollutant
Not available.

Snow Depth

Station Depth Elevation

Earthquake Activity

City Distance Mag. Time & Date
Minimum magnitude displayed is 2.5.

Coastal Water Temperatures

Place Temperature

Stations

Nearby Weather Stations

Station Location Temp. Windchill Dew Point Humidity Wind Precip. Elev Updated Type
                   

Watches & Warnings

There are currently no watches in effect.